createdAt,value
2018-05-18T00:02:11.620Z,40.60
2018-05-18T00:04:40.054Z,38.17
2018-05-18T00:07:08.499Z,38.80
2018-05-18T00:09:37.988Z,39.13
2018-05-18T00:12:06.415Z,39.17
2018-05-18T00:14:34.850Z,40.17
2018-05-18T00:17:04.344Z,37.90
2018-05-18T00:19:33.048Z,38.70
2018-05-18T00:22:02.522Z,37.70
2018-05-18T00:24:31.749Z,37.37
2018-05-18T00:27:00.200Z,36.73
2018-05-18T00:29:28.828Z,35.70
2018-05-18T00:31:57.267Z,36.37
2018-05-18T00:34:25.973Z,35.50
2018-05-18T00:36:54.413Z,36.43
2018-05-18T00:39:23.941Z,35.77
2018-05-18T00:41:52.373Z,34.03
2018-05-18T00:44:20.911Z,35.80
2018-05-18T00:46:50.405Z,34.90
2018-05-18T00:49:19.694Z,33.47
2018-05-18T00:51:48.697Z,33.58
2018-05-18T00:54:17.153Z,33.00
2018-05-18T00:56:46.363Z,32.80
2018-05-18T00:59:15.608Z,30.30
2018-05-18T01:01:44.965Z,30.50
2018-05-18T01:04:14.177Z,30.10
2018-05-18T01:06:42.807Z,30.70
2018-05-18T01:09:11.265Z,29.37
2018-05-18T01:11:39.721Z,28.80
2018-05-18T01:14:08.254Z,28.67
2018-05-18T01:16:36.703Z,28.47
2018-05-18T01:19:06.173Z,27.10
2018-05-18T01:21:35.129Z,28.00
2018-05-18T01:24:04.017Z,27.30
2018-05-18T01:26:32.468Z,27.57
2018-05-18T01:29:00.905Z,28.13
2018-05-18T01:31:30.121Z,28.40
2018-05-18T01:33:58.856Z,28.57
2018-05-18T01:36:27.573Z,27.23
2018-05-18T01:38:56.065Z,27.80
2018-05-18T01:41:24.502Z,28.57
2018-05-18T01:43:52.540Z,28.75
2018-05-18T01:46:20.981Z,27.57
2018-05-18T01:48:49.768Z,26.50
2018-05-18T01:51:18.424Z,26.70
2018-05-18T01:53:47.177Z,24.90
2018-05-18T01:56:16.548Z,27.83
2018-05-18T01:58:46.048Z,27.07
2018-05-18T02:01:15.265Z,27.80
2018-05-18T02:03:43.972Z,29.25
2018-05-18T02:06:13.240Z,31.07
2018-05-18T02:08:41.680Z,30.50
2018-05-18T02:11:10.168Z,32.60
2018-05-18T02:13:39.490Z,30.80
2018-05-18T02:16:08.208Z,31.73
2018-05-18T02:18:36.638Z,28.77
2018-05-18T02:21:05.344Z,31.53
2018-05-18T02:23:33.318Z,32.50
2018-05-18T02:26:01.761Z,33.47
2018-05-18T02:28:30.308Z,35.10
2018-05-18T02:30:59.039Z,33.30
2018-05-18T02:33:27.464Z,35.47
2018-05-18T02:35:56.241Z,31.80
2018-05-18T02:38:25.758Z,32.73
2018-05-18T02:40:55.115Z,33.20
2018-05-18T02:43:24.328Z,34.63
2018-05-18T02:45:53.688Z,32.47
2018-05-18T02:48:22.400Z,33.65
2018-05-18T02:50:51.606Z,33.13
2018-05-18T02:53:20.323Z,33.80
2018-05-18T02:55:49.014Z,33.27
2018-05-18T02:58:17.632Z,36.40
2018-05-18T03:00:46.384Z,35.87
2018-05-18T03:03:14.830Z,36.00
2018-05-18T03:05:44.024Z,34.83
2018-05-18T03:08:12.798Z,35.20
2018-05-18T03:10:42.018Z,35.20
2018-05-18T03:13:11.836Z,36.33
2018-05-18T03:15:40.616Z,35.53
2018-05-18T03:18:09.073Z,34.33
2018-05-18T03:20:37.757Z,34.97
2018-05-18T03:23:06.485Z,35.20
2018-05-18T03:25:35.129Z,35.60
2018-05-18T03:28:03.757Z,35.07
2018-05-18T03:30:32.209Z,35.90
2018-05-18T03:33:00.927Z,34.83
2018-05-18T03:35:29.436Z,33.60
2018-05-18T03:37:57.890Z,38.80
2018-05-18T03:40:26.340Z,34.80
2018-05-18T03:42:55.257Z,34.53
2018-05-18T03:45:24.736Z,34.15
2018-05-18T03:47:53.177Z,33.70
2018-05-18T03:50:21.809Z,34.03
2018-05-18T03:52:51.317Z,32.70
2018-05-18T03:55:19.752Z,34.13
2018-05-18T03:57:48.496Z,33.27
2018-05-18T04:00:16.944Z,32.97
2018-05-18T04:05:56.957Z,32.83
2018-05-18T04:08:45.777Z,35.63
2018-05-18T04:11:14.079Z,33.63
2018-05-18T04:13:42.524Z,33.87
2018-05-18T04:16:11.203Z,38.00
2018-05-18T04:18:40.409Z,34.03
2018-05-18T04:21:09.114Z,34.83
2018-05-18T04:23:37.669Z,34.47
2018-05-18T04:26:06.055Z,36.10
2018-05-18T04:28:34.706Z,35.37
2018-05-18T04:31:03.417Z,34.20
2018-05-18T04:33:32.133Z,33.97
2018-05-18T04:36:00.825Z,34.50
2018-05-18T04:38:29.541Z,38.90
2018-05-18T04:40:57.993Z,32.85
2018-05-18T04:43:26.715Z,35.05
2018-05-18T04:45:55.205Z,33.58
2018-05-18T04:48:24.435Z,32.80
2018-05-18T04:50:52.994Z,35.33
2018-05-18T04:53:21.616Z,32.93
2018-05-18T04:55:50.064Z,32.53
2018-05-18T04:58:19.269Z,33.30
2018-05-18T05:00:47.993Z,30.95
2018-05-18T05:03:16.437Z,30.13
2018-05-18T05:05:45.208Z,32.77
2018-05-18T05:08:14.408Z,30.20
2018-05-18T05:10:43.625Z,31.80
2018-05-18T05:13:12.493Z,32.00
2018-05-18T05:15:41.075Z,29.93
2018-05-18T05:18:09.800Z,30.20
2018-05-18T05:20:39.280Z,29.70
2018-05-18T05:23:07.996Z,31.90
2018-05-18T05:25:36.448Z,28.70
2018-05-18T05:28:04.548Z,30.73
2018-05-18T05:30:33.338Z,29.30
2018-05-18T05:33:01.892Z,29.37
2018-05-18T05:35:30.428Z,27.90
2018-05-18T05:37:58.874Z,27.30
2018-05-18T05:40:27.456Z,25.87
2018-05-18T05:42:55.892Z,25.40
2018-05-18T05:45:25.808Z,26.10
2018-05-18T05:47:55.020Z,25.30
2018-05-18T05:50:23.594Z,25.90
2018-05-18T05:52:52.461Z,24.40
2018-05-18T05:55:21.592Z,25.27
2018-05-18T05:57:51.086Z,23.70
2018-05-18T06:00:19.966Z,24.02
2018-05-18T06:02:49.996Z,24.93
2018-05-18T06:05:18.501Z,24.80
2018-05-18T06:07:47.429Z,26.07
2018-05-18T06:10:16.144Z,25.90
2018-05-18T06:12:45.650Z,24.80
2018-05-18T06:15:15.154Z,24.47
2018-05-18T06:17:43.634Z,23.70
2018-05-18T06:20:12.836Z,23.90
2018-05-18T06:22:41.320Z,25.37
2018-05-18T06:25:10.940Z,25.43
2018-05-18T06:27:39.544Z,25.30
2018-05-18T06:30:07.989Z,26.00
2018-05-18T06:32:37.476Z,23.92
2018-05-18T06:35:06.782Z,24.40
2018-05-18T06:37:35.352Z,25.90
2018-05-18T06:40:04.089Z,25.80
2018-05-18T06:42:33.456Z,24.77
2018-05-18T06:45:01.897Z,23.33
2018-05-18T06:47:30.556Z,25.20
2018-05-18T06:49:59.090Z,23.67
2018-05-18T06:52:27.586Z,24.37
2018-05-18T06:54:56.312Z,25.23
2018-05-18T06:57:24.941Z,23.07
2018-05-18T06:59:53.459Z,22.53
2018-05-18T07:02:21.912Z,21.93
2018-05-18T07:04:50.769Z,19.30
2018-05-18T07:07:19.199Z,18.50
2018-05-18T07:09:48.802Z,18.97
2018-05-18T07:12:17.251Z,19.00
2018-05-18T07:14:45.949Z,19.43
2018-05-18T07:17:14.682Z,19.35
2018-05-18T07:19:43.243Z,19.33
2018-05-18T07:22:12.724Z,19.57
2018-05-18T07:24:41.312Z,20.33
2018-05-18T07:27:10.951Z,21.48
2018-05-18T07:29:40.217Z,19.90
2018-05-18T07:32:09.017Z,21.83
2018-05-18T07:34:38.209Z,19.57
2018-05-18T07:37:06.781Z,21.37
2018-05-18T07:39:35.277Z,20.13
2018-05-18T07:42:04.807Z,18.85
2018-05-18T07:44:33.521Z,19.17
2018-05-18T07:47:02.202Z,18.63
2018-05-18T07:49:30.936Z,16.80
2018-05-18T07:52:00.228Z,18.23
2018-05-18T07:54:29.010Z,16.27
2018-05-18T07:56:57.616Z,18.77
2018-05-18T07:59:26.066Z,19.43
2018-05-18T08:01:55.128Z,16.80
2018-05-18T08:04:23.562Z,16.17
2018-05-18T08:06:52.844Z,18.47
2018-05-18T08:09:21.559Z,17.70
2018-05-18T08:11:50.002Z,17.40
2018-05-18T08:14:18.716Z,18.70
2018-05-18T08:16:47.175Z,18.50
2018-05-18T08:19:15.358Z,16.57
2018-05-18T08:21:44.748Z,15.60
2018-05-18T08:24:13.464Z,15.57
2018-05-18T08:26:41.954Z,14.90
2018-05-18T08:29:21.724Z,14.10
2018-05-18T08:31:50.176Z,14.60
2018-05-18T08:34:18.900Z,16.98
2018-05-18T08:36:47.809Z,15.57
2018-05-18T08:39:16.528Z,12.77
2018-05-18T08:41:46.011Z,12.00
2018-05-18T08:44:14.466Z,11.87
2018-05-18T08:46:43.096Z,12.00
2018-05-18T08:49:11.536Z,10.70
2018-05-18T08:51:40.761Z,11.80
2018-05-18T08:54:09.210Z,13.20
2018-05-18T08:56:38.409Z,12.10
2018-05-18T08:59:07.621Z,10.63
2018-05-18T09:01:36.084Z,10.30
2018-05-18T09:04:05.305Z,20.40
2018-05-18T09:06:33.775Z,10.67
2018-05-18T09:09:02.226Z,10.00
2018-05-18T09:11:30.938Z,13.17
2018-05-18T09:13:59.555Z,11.10
2018-05-18T09:16:29.020Z,9.75
2018-05-18T09:18:58.219Z,9.97
2018-05-18T09:21:27.450Z,10.20
2018-05-18T09:23:56.107Z,10.00
2018-05-18T09:26:24.911Z,9.60
2018-05-18T09:28:53.611Z,11.50
2018-05-18T09:31:22.056Z,9.90
2018-05-18T09:33:51.258Z,10.87
2018-05-18T09:36:20.661Z,9.80
2018-05-18T09:38:49.106Z,11.47
2018-05-18T09:41:17.789Z,10.13
2018-05-18T09:43:46.229Z,9.00
2018-05-18T09:46:14.737Z,10.50
2018-05-18T09:48:44.052Z,10.03
2018-05-18T09:51:13.295Z,10.63
2018-05-18T09:53:41.725Z,8.80
2018-05-18T09:56:10.241Z,9.90
2018-05-18T09:58:38.696Z,9.13
2018-05-18T10:01:07.393Z,9.40
2018-05-18T10:03:37.625Z,9.00
2018-05-18T10:06:06.925Z,8.30
2018-05-18T10:08:35.358Z,9.47
2018-05-18T10:11:03.810Z,8.73
2018-05-18T10:13:32.479Z,8.10
2018-05-18T10:16:01.008Z,10.43
2018-05-18T10:18:29.534Z,8.03
2018-05-18T10:20:58.087Z,9.97
2018-05-18T10:23:27.176Z,8.35
2018-05-18T10:25:55.760Z,8.50
2018-05-18T10:28:26.647Z,8.17
2018-05-18T10:30:55.102Z,8.93
2018-05-18T10:33:24.598Z,9.40
2018-05-18T10:35:53.812Z,10.03
2018-05-18T10:38:22.529Z,10.27
2018-05-18T10:40:51.302Z,10.20
2018-05-18T10:43:19.907Z,10.53
2018-05-18T10:45:49.148Z,8.97
2018-05-18T10:48:18.341Z,9.23
2018-05-18T10:50:47.104Z,10.10
2018-05-18T10:53:15.748Z,8.00
2018-05-18T10:55:44.196Z,8.50
2018-05-18T10:58:13.422Z,9.20
2018-05-18T11:00:41.958Z,8.27
2018-05-18T11:03:10.594Z,9.02
2018-05-18T11:05:39.040Z,8.33
2018-05-18T11:08:08.244Z,9.43
2018-05-18T11:10:36.668Z,7.90
2018-05-18T11:13:05.392Z,8.70
2018-05-18T11:15:34.590Z,7.73
2018-05-18T11:18:03.300Z,7.53
2018-05-18T11:20:31.751Z,8.50
2018-05-18T11:23:00.950Z,7.90
2018-05-18T11:25:30.024Z,6.70
2018-05-18T11:27:58.465Z,7.37
2018-05-18T11:30:26.891Z,7.40
2018-05-18T11:32:55.341Z,7.07
2018-05-18T11:35:24.051Z,8.17
2018-05-18T11:37:52.749Z,7.10
2018-05-18T11:40:21.184Z,7.80
2018-05-18T11:42:49.861Z,7.03
2018-05-18T11:45:19.075Z,7.10
2018-05-18T11:47:48.321Z,8.32
2018-05-18T11:50:16.705Z,8.13
2018-05-18T11:52:45.908Z,8.50
2018-05-18T11:55:14.393Z,6.83
2018-05-18T11:57:42.833Z,8.17
2018-05-18T12:00:11.265Z,7.93
2018-05-18T12:02:39.687Z,6.83
2018-05-18T12:05:08.401Z,7.20
2018-05-18T12:07:37.602Z,7.73
2018-05-18T12:10:05.705Z,7.60
2018-05-18T12:12:35.149Z,8.00
2018-05-18T12:15:04.673Z,7.90
2018-05-18T12:17:34.013Z,7.00
2018-05-18T12:20:02.221Z,7.83
2018-05-18T12:22:32.607Z,7.37
2018-05-18T12:25:02.388Z,6.45
2018-05-18T12:27:31.615Z,7.70
2018-05-18T12:30:00.241Z,7.80
2018-05-18T12:32:29.468Z,6.63
2018-05-18T12:34:58.681Z,6.60
2018-05-18T12:37:27.129Z,8.53
2018-05-18T12:39:55.825Z,6.77
2018-05-18T12:42:24.393Z,6.53
2018-05-18T12:44:53.109Z,6.40
2018-05-18T12:47:21.986Z,8.50
2018-05-18T12:49:51.401Z,7.68
2018-05-18T12:52:20.104Z,7.47
2018-05-18T12:54:49.579Z,6.80
2018-05-18T12:57:18.814Z,8.43
2018-05-18T12:59:47.452Z,6.70
2018-05-18T13:02:16.657Z,6.70
2018-05-18T13:04:45.867Z,6.83
2018-05-18T13:07:14.301Z,7.83
2018-05-18T13:09:43.835Z,7.57
2018-05-18T13:12:13.037Z,8.27
2018-05-18T13:14:41.588Z,6.87
2018-05-18T13:17:10.219Z,6.30
2018-05-18T13:19:38.663Z,6.50
2018-05-18T13:22:07.095Z,5.57
2018-05-18T13:24:36.589Z,5.80
2018-05-18T13:27:04.693Z,6.07
2018-05-18T13:29:33.181Z,6.33
2018-05-18T13:32:01.889Z,4.75
2018-05-18T13:34:30.482Z,5.10
2018-05-18T13:36:59.684Z,5.87
2018-05-18T13:39:28.369Z,5.40
2018-05-18T13:41:57.878Z,6.50
2018-05-18T13:44:26.300Z,5.70
2018-05-18T13:46:54.737Z,6.50
2018-05-18T13:49:23.192Z,5.50
2018-05-18T13:51:52.611Z,6.20
2018-05-18T13:54:21.901Z,5.67
2018-05-18T13:56:50.711Z,6.22
2018-05-18T13:59:19.146Z,6.20
2018-05-18T14:01:48.720Z,5.03
2018-05-18T14:04:17.252Z,6.20
2018-05-18T14:06:46.440Z,5.73
2018-05-18T14:09:15.145Z,6.00
2018-05-18T14:11:43.649Z,6.70
2018-05-18T14:14:12.072Z,5.60
2018-05-18T14:16:40.818Z,6.20
2018-05-18T14:19:10.296Z,5.57
2018-05-18T14:21:38.727Z,4.83
2018-05-18T14:24:07.416Z,5.20
2018-05-18T14:26:35.870Z,6.00
2018-05-18T14:29:04.319Z,5.20
2018-05-18T14:31:33.029Z,6.15
2018-05-18T14:34:01.527Z,6.10
2018-05-18T14:36:29.969Z,6.33
2018-05-18T14:38:58.618Z,6.43
2018-05-18T14:41:27.321Z,5.60
2018-05-18T14:43:56.541Z,5.67
2018-05-18T14:46:26.046Z,6.20
2018-05-18T14:48:55.332Z,4.93
2018-05-18T14:51:23.829Z,4.83
2018-05-18T14:53:52.299Z,6.13
2018-05-18T14:56:21.019Z,5.97
2018-05-18T14:58:49.455Z,5.90
2018-05-18T15:01:18.656Z,6.00
2018-05-18T15:03:47.329Z,5.30
2018-05-18T15:06:16.537Z,6.13
2018-05-18T15:08:45.240Z,5.10
2018-05-18T15:11:14.197Z,5.00
2018-05-18T15:13:42.656Z,5.30
2018-05-18T15:16:12.383Z,6.40
2018-05-18T15:18:40.861Z,6.57
2018-05-18T15:21:09.294Z,5.93
2018-05-18T15:23:38.529Z,4.50
2018-05-18T15:26:08.266Z,5.20
2018-05-18T15:28:37.619Z,5.53
2018-05-18T15:31:07.074Z,5.70
2018-05-18T15:33:35.661Z,5.50
2018-05-18T15:36:04.092Z,6.10
2018-05-18T15:38:32.516Z,5.57
2018-05-18T15:41:01.729Z,5.20
2018-05-18T15:43:30.199Z,6.13
2018-05-18T15:45:58.888Z,4.77
2018-05-18T15:48:27.336Z,4.63
2018-05-18T15:50:55.764Z,6.13
2018-05-18T15:53:25.225Z,5.97
2018-05-18T15:55:53.945Z,5.60
2018-05-18T15:58:22.379Z,6.37
2018-05-18T16:00:51.709Z,5.50
2018-05-18T16:03:20.381Z,5.60
2018-05-18T16:05:49.577Z,5.10
2018-05-18T16:08:18.279Z,4.93
2018-05-18T16:10:46.729Z,5.47
2018-05-18T16:13:15.153Z,6.10
2018-05-18T16:15:44.617Z,6.93
2018-05-18T16:18:13.228Z,6.53
2018-05-18T16:20:41.810Z,5.40
2018-05-18T16:23:10.307Z,5.90
2018-05-18T16:25:38.760Z,5.80
2018-05-18T16:28:07.515Z,5.18
2018-05-18T16:30:36.165Z,6.50
2018-05-18T16:33:04.514Z,5.43
2018-05-18T16:35:33.660Z,5.15
2018-05-18T16:38:02.134Z,6.60
2018-05-18T16:40:30.574Z,5.67
2018-05-18T16:42:59.316Z,6.10
2018-05-18T16:45:27.752Z,5.30
2018-05-18T16:47:56.196Z,6.10
2018-05-18T16:50:24.716Z,6.00
2018-05-18T16:52:53.156Z,6.20
2018-05-18T16:55:21.795Z,5.83
2018-05-18T16:57:50.509Z,6.20
2018-05-18T17:00:19.131Z,7.67
2018-05-18T17:02:47.569Z,6.30
2018-05-18T17:05:15.989Z,5.60
2018-05-18T17:07:44.691Z,6.43
2018-05-18T17:10:13.000Z,5.23
2018-05-18T17:12:41.705Z,5.87
2018-05-18T17:15:10.137Z,5.73
2018-05-18T17:17:38.577Z,5.80
2018-05-18T17:20:07.137Z,5.60
2018-05-18T17:22:35.568Z,4.90
2018-05-18T17:25:04.719Z,4.80
2018-05-18T17:27:33.421Z,5.40
2018-05-18T17:30:02.102Z,6.20
2018-05-18T17:32:30.831Z,5.30
2018-05-18T17:34:59.256Z,5.00
2018-05-18T17:37:27.756Z,6.73
2018-05-18T17:39:56.208Z,6.50
2018-05-18T17:42:24.917Z,6.18
2018-05-18T17:44:54.126Z,6.30
2018-05-18T17:47:23.548Z,6.47
2018-05-18T17:49:51.976Z,6.10
2018-05-18T17:52:20.680Z,6.40
2018-05-18T17:54:49.559Z,5.27
2018-05-18T17:57:18.244Z,5.73
2018-05-18T17:59:47.856Z,8.97
2018-05-18T18:02:16.722Z,9.73
2018-05-18T18:04:45.155Z,8.60
2018-05-18T18:07:13.592Z,7.60
2018-05-18T18:09:42.934Z,7.23
2018-05-18T18:12:12.408Z,6.93
2018-05-18T18:14:41.608Z,7.93
2018-05-18T18:17:10.826Z,7.17
2018-05-18T18:19:39.532Z,8.18
2018-05-18T18:22:07.950Z,7.87
2018-05-18T18:24:36.668Z,7.65
2018-05-18T18:27:05.376Z,8.30
2018-05-18T18:29:33.812Z,8.87
2018-05-18T18:32:03.012Z,6.63
2018-05-18T18:34:31.720Z,5.85
2018-05-18T18:37:00.477Z,6.23
2018-05-18T18:39:29.708Z,5.43
2018-05-18T18:41:58.151Z,5.30
2018-05-18T18:44:26.759Z,5.50
2018-05-18T18:46:55.200Z,5.63
2018-05-18T18:49:24.529Z,5.87
2018-05-18T18:51:53.727Z,5.23
2018-05-18T18:54:22.310Z,5.13
2018-05-18T18:56:52.310Z,5.13
2018-05-18T18:59:21.874Z,5.33
2018-05-18T19:01:50.393Z,6.10
2018-05-18T19:04:18.883Z,5.63
2018-05-18T19:06:48.085Z,5.93
2018-05-18T19:09:16.821Z,5.97
2018-05-18T19:11:45.285Z,5.40
2018-05-18T19:14:13.761Z,7.33
2018-05-18T19:16:42.197Z,6.60
2018-05-18T19:19:10.669Z,5.97
2018-05-18T19:21:39.105Z,6.23
2018-05-18T19:24:08.638Z,7.43
2018-05-18T19:26:38.289Z,6.80
2018-05-18T19:29:06.989Z,7.47
2018-05-18T19:31:35.429Z,6.67
2018-05-18T19:34:03.865Z,6.93
2018-05-18T19:36:33.516Z,6.57
2018-05-18T19:39:02.209Z,7.90
2018-05-18T19:41:31.413Z,7.87
2018-05-18T19:43:59.789Z,7.20
2018-05-18T19:46:28.500Z,7.40
2018-05-18T19:48:57.165Z,7.93
2018-05-18T19:51:25.870Z,8.00
2018-05-18T19:53:54.316Z,8.60
2018-05-18T19:56:22.957Z,7.53
2018-05-18T19:58:51.678Z,9.02
2018-05-18T20:01:20.809Z,9.20
2018-05-18T20:03:50.989Z,10.93
2018-05-18T20:06:20.423Z,12.33
2018-05-18T20:08:49.642Z,10.80
2018-05-18T20:11:18.189Z,11.37
2018-05-18T20:13:47.401Z,10.93
2018-05-18T20:16:15.846Z,10.93
2018-05-18T20:18:44.285Z,12.13
2018-05-18T20:21:13.820Z,10.60
2018-05-18T20:23:43.168Z,11.67
2018-05-18T20:26:11.876Z,10.60
2018-05-18T20:28:40.320Z,11.90
2018-05-18T20:31:08.937Z,9.77
2018-05-18T20:33:37.824Z,9.85
2018-05-18T20:36:06.274Z,10.60
2018-05-18T20:38:35.312Z,11.02
2018-05-18T20:41:04.023Z,9.90
2018-05-18T20:43:32.720Z,9.52
2018-05-18T20:46:01.441Z,10.10
2018-05-18T20:48:30.928Z,9.90
2018-05-18T20:51:00.332Z,10.40
2018-05-18T20:53:28.988Z,9.45
2018-05-18T20:55:57.537Z,9.00
2018-05-18T20:58:26.216Z,9.73
2018-05-18T21:00:54.668Z,10.10
2018-05-18T21:03:23.374Z,9.97
2018-05-18T21:05:51.864Z,10.70
2018-05-18T21:08:20.732Z,9.97
2018-05-18T21:10:49.168Z,10.63
2018-05-18T21:13:18.613Z,10.23
2018-05-18T21:15:47.917Z,11.37
2018-05-18T21:18:16.689Z,11.00
2018-05-18T21:20:45.894Z,10.47
2018-05-18T21:23:14.364Z,10.33
2018-05-18T21:25:43.065Z,11.27
2018-05-18T21:28:11.498Z,11.70
2018-05-18T21:30:40.228Z,10.55
2018-05-18T21:33:10.231Z,11.33
2018-05-18T21:35:39.446Z,11.17
2018-05-18T21:38:08.237Z,10.20
2018-05-18T21:40:36.672Z,10.27
2018-05-18T21:43:05.104Z,10.90
2018-05-18T21:45:34.580Z,10.50
2018-05-18T21:48:03.264Z,11.20
2018-05-18T21:50:31.974Z,11.15
2018-05-18T21:53:01.468Z,12.50
2018-05-18T21:55:29.923Z,10.60
2018-05-18T21:57:59.130Z,11.70
2018-05-18T22:00:29.372Z,10.70
2018-05-18T22:02:57.815Z,11.17
2018-05-18T22:05:26.256Z,11.07
2018-05-18T22:07:55.217Z,11.65
2018-05-18T22:10:23.967Z,13.03
2018-05-18T22:12:52.441Z,11.50
2018-05-18T22:15:21.440Z,11.37
2018-05-18T22:17:49.872Z,11.90
2018-05-18T22:20:18.315Z,11.80
2018-05-18T22:22:47.801Z,13.47
2018-05-18T22:25:16.388Z,11.63
2018-05-18T22:27:45.120Z,11.70
2018-05-18T22:30:14.605Z,10.50
2018-05-18T22:32:43.038Z,10.80
2018-05-18T22:35:11.474Z,10.33
2018-05-18T22:37:39.941Z,10.50
2018-05-18T22:40:08.621Z,10.87
2018-05-18T22:42:37.309Z,11.30
2018-05-18T22:45:06.021Z,9.30
2018-05-18T22:47:34.779Z,10.53
2018-05-18T22:50:03.433Z,10.73
2018-05-18T22:52:31.997Z,11.00
2018-05-18T22:55:00.424Z,9.97
2018-05-18T22:57:29.616Z,9.60
2018-05-18T22:59:58.001Z,9.57
2018-05-18T23:02:26.512Z,9.47
2018-05-18T23:04:54.941Z,8.90
2018-05-18T23:07:24.144Z,8.90
2018-05-18T23:09:53.340Z,9.20
2018-05-18T23:12:22.051Z,8.80
2018-05-18T23:14:50.768Z,8.52
2018-05-18T23:17:20.220Z,9.03
2018-05-18T23:19:49.208Z,9.23
2018-05-18T23:22:18.039Z,8.52
2018-05-18T23:24:46.464Z,9.73
2018-05-18T23:27:14.893Z,10.20
2018-05-18T23:29:43.336Z,9.80
2018-05-18T23:32:12.040Z,9.10
2018-05-18T23:34:40.482Z,10.30
2018-05-18T23:37:09.140Z,11.10
2018-05-18T23:39:37.846Z,10.40
2018-05-18T23:42:06.288Z,10.20
2018-05-18T23:44:35.064Z,11.27
2018-05-18T23:47:03.519Z,10.57
2018-05-18T23:49:33.015Z,11.18
2018-05-18T23:52:01.736Z,10.68
2018-05-18T23:54:31.226Z,10.90
2018-05-18T23:57:00.104Z,10.60
2018-05-18T23:59:29.422Z,11.55
